Time;durP1;ratioP1;P1;durP2;ratioP2;P2;SDS_P1;SDS_P2;PMS_P1;PMS_P2;Temp;Humidity;BMP_temperature;BMP_pressure;BME280_temperature;BME280_humidity;BME280_pressure;Samples;Min_cycle;Max_cycle;Signal;HPM_P1;HPM_P2
2021/07/11 00:01:39;;;;;;;0.10;0.10;;;;;;;14.89;89.14;101093.91;5045181;28;20053;-91
2021/07/11 00:04:12;;;;;;;0.20;0.20;;;;;;;14.88;88.98;101089.53;5023061;28;20057;-86
2021/07/11 00:06:40;;;;;;;0.13;0.13;;;;;;;14.92;88.54;101096.03;5050472;28;20053;-89
2021/07/11 00:09:15;;;;;;;0.10;0.10;;;;;;;14.93;89.56;101100.41;5027349;28;20506;-88
2021/07/11 00:11:48;;;;;;;0.20;0.20;;;;;;;14.85;89.02;101090.13;5028672;28;20504;-88
2021/07/11 00:14:17;;;;;;;0.10;0.10;;;;;;;14.91;88.79;101092.47;5046561;28;20044;-89
2021/07/11 00:16:50;;;;;;;0.10;0.10;;;;;;;14.85;89.81;101095.63;5050437;28;20045;-88
2021/07/11 00:19:24;;;;;;;0.10;0.10;;;;;;;14.81;89.56;101089.09;5035137;28;20060;-89
2021/07/11 00:21:57;;;;;;;0.20;0.20;;;;;;;14.79;89.67;101087.47;5018290;28;20049;-88
2021/07/11 00:24:33;;;;;;;0.10;0.10;;;;;;;14.77;89.20;101086.13;5029277;28;20477;-88
2021/07/11 00:27:08;;;;;;;0.20;0.20;;;;;;;14.77;88.66;101091.63;5027622;28;20057;-88
2021/07/11 00:29:41;;;;;;;0.13;0.13;;;;;;;14.77;88.78;101094.34;5026272;28;20061;-90
2021/07/11 00:32:09;;;;;;;0.10;0.10;;;;;;;14.74;89.08;101089.47;5046328;28;20055;-88
2021/07/11 00:34:43;;;;;;;0.20;0.20;;;;;;;14.70;89.44;101094.72;5043335;28;20060;-88
2021/07/11 00:37:16;;;;;;;0.10;0.10;;;;;;;14.60;89.47;101070.22;5021394;28;20056;-89
2021/07/11 00:39:51;;;;;;;0.10;0.10;;;;;;;14.65;89.70;101072.88;5045227;28;20048;-90
2021/07/11 00:42:26;;;;;;;0.15;0.15;;;;;;;14.65;89.15;101069.34;5031288;28;20572;-88
2021/07/11 00:45:00;;;;;;;0.10;0.10;;;;;;;14.69;89.27;101086.81;5030003;28;20063;-88
2021/07/11 00:47:38;;;;;;;0.10;0.10;;;;;;;14.67;88.96;101087.13;5016868;28;20060;-89
2021/07/11 00:50:14;;;;;;;0.13;0.13;;;;;;;14.65;89.50;101091.25;5029345;28;20049;-89
2021/07/11 00:52:56;;;;;;;0.10;0.10;;;;;;;14.64;88.64;101084.97;5046812;28;20060;-88
2021/07/11 00:55:31;;;;;;;0.10;0.10;;;;;;;14.63;89.67;101086.06;5041955;28;20048;-89
2021/07/11 00:58:07;;;;;;;0.10;0.10;;;;;;;14.57;88.70;101076.25;5049200;28;20049;-89
2021/07/11 01:00:48;;;;;;;0.20;0.20;;;;;;;14.52;89.28;101082.66;5048913;28;20470;-88
2021/07/11 01:03:27;;;;;;;0.10;0.10;;;;;;;14.59;90.13;101091.28;5030904;28;20048;-89
2021/07/11 01:06:09;;;;;;;0.20;0.20;;;;;;;14.59;89.34;101098.72;5032546;28;20044;-87
2021/07/11 01:08:50;;;;;;;0.20;0.20;;;;;;;14.53;89.75;101087.03;5030909;28;20735;-89
2021/07/11 01:11:29;;;;;;;0.10;0.10;;;;;;;14.51;88.99;101093.91;5045286;28;20042;-90
2021/07/11 01:14:00;;;;;;;0.10;0.10;;;;;;;14.52;90.18;101103.75;5046201;28;20040;-89
2021/07/11 01:16:37;;;;;;;0.20;0.20;;;;;;;14.50;89.85;101101.31;5045682;28;20057;-89
2021/07/11 01:19:25;;;;;;;0.20;0.20;;;;;;;14.51;89.39;101107.59;5022931;28;20052;-87
2021/07/11 01:22:00;;;;;;;;;;;;;;;14.51;90.23;101102.91;5029445;28;20053;-87
2021/07/11 01:24:46;;;;;;;0.17;0.17;;;;;;;14.38;90.78;101096.25;5028852;28;20724;-89
2021/07/11 01:27:21;;;;;;;0.10;0.10;;;;;;;14.43;90.03;101098.09;5041378;28;20075;-89
2021/07/11 01:29:55;;;;;;;0.10;0.10;;;;;;;14.46;91.15;101097.53;5029456;28;20881;-89
2021/07/11 01:32:34;;;;;;;0.20;0.20;;;;;;;14.43;89.39;101107.16;5023833;28;20056;-89
2021/07/11 01:35:09;;;;;;;0.20;0.20;;;;;;;14.33;90.09;101098.25;5030217;28;20072;-89
2021/07/11 01:37:43;;;;;;;0.20;0.20;;;;;;;14.28;90.12;101105.44;5048201;28;20053;-86
2021/07/11 01:40:18;;;;;;;0.10;0.10;;;;;;;14.27;90.65;101108.47;5020070;28;20544;-89
2021/07/11 01:42:51;;;;;;;0.10;0.10;;;;;;;14.20;91.30;101102.53;5024994;28;20061;-88
2021/07/11 01:45:26;;;;;;;0.20;0.20;;;;;;;14.27;90.82;101117.47;5027748;28;20049;-87
2021/07/11 01:47:59;;;;;;;0.10;0.10;;;;;;;14.26;91.04;101112.31;5030041;28;20664;-88
2021/07/11 01:50:34;;;;;;;0.10;0.10;;;;;;;14.32;91.27;101122.09;5045837;28;20057;-89
2021/07/11 01:53:08;;;;;;;0.20;0.20;;;;;;;14.30;91.67;101113.34;5028155;28;20574;-90
2021/07/11 01:55:42;;;;;;;0.20;0.20;;;;;;;14.35;90.68;101115.19;5041700;28;20057;-88
2021/07/11 01:58:18;;;;;;;0.10;0.10;;;;;;;14.37;90.60;101116.53;5030095;28;20052;-88
2021/07/11 02:00:54;;;;;;;0.10;0.10;;;;;;;14.38;90.46;101115.44;5043547;28;20045;-90
2021/07/11 02:03:30;;;;;;;0.20;0.20;;;;;;;14.32;91.30;101118.53;5029535;28;20053;-89
2021/07/11 02:06:08;;;;;;;0.00;0.00;;;;;;;14.31;90.86;101119.63;5017163;28;20059;-89
2021/07/11 02:08:42;;;;;;;0.10;0.10;;;;;;;14.24;91.90;101106.31;5032520;28;20082;-89
2021/07/11 02:11:27;;;;;;;0.20;0.20;;;;;;;14.27;91.20;101116.69;5047243;28;20041;-89
2021/07/11 02:14:11;;;;;;;0.10;0.10;;;;;;;14.21;92.26;101120.59;5029491;28;20056;-91
2021/07/11 02:16:53;;;;;;;0.10;0.10;;;;;;;14.20;90.79;101122.50;5030061;28;20056;-89
2021/07/11 02:19:35;;;;;;;0.20;0.20;;;;;;;14.18;91.00;101113.75;5041090;28;20061;-90
2021/07/11 02:22:12;;;;;;;0.17;0.17;;;;;;;14.16;91.20;101112.47;5016029;28;20048;-87
2021/07/11 02:24:49;;;;;;;0.10;0.10;;;;;;;14.03;91.63;101108.50;5018915;28;20056;-89
2021/07/11 02:27:30;;;;;;;0.15;0.15;;;;;;;14.03;91.97;101116.69;5026187;28;20084;-89
2021/07/11 02:30:12;;;;;;;0.10;0.10;;;;;;;13.98;92.26;101111.31;5038773;28;20046;-88
2021/07/11 02:32:48;;;;;;;0.20;0.20;;;;;;;14.02;92.45;101106.88;5038156;28;20056;-88
2021/07/11 02:35:29;;;;;;;0.10;0.10;;;;;;;14.01;92.33;101107.97;5043341;28;20052;-90
2021/07/11 02:38:04;;;;;;;0.20;0.20;;;;;;;13.92;92.68;101107.78;5030494;28;20060;-89
2021/07/11 02:40:34;;;;;;;0.15;0.15;;;;;;;13.94;93.00;101105.59;5023565;28;20063;-89
2021/07/11 02:43:11;;;;;;;0.20;0.20;;;;;;;13.93;92.22;101099.31;5027765;28;20064;-89
2021/07/11 02:45:44;;;;;;;0.10;0.10;;;;;;;13.92;92.34;101107.78;5033461;28;20053;-89
2021/07/11 02:48:19;;;;;;;0.20;0.20;;;;;;;13.94;92.79;101106.41;5028441;28;20547;-88
2021/07/11 02:50:55;;;;;;;0.15;0.15;;;;;;;13.86;92.39;101098.03;5045509;28;20506;-88
2021/07/11 02:53:31;;;;;;;0.20;0.20;;;;;;;13.87;92.80;101096.94;5048264;28;20045;-89
2021/07/11 02:56:10;;;;;;;0.20;0.20;;;;;;;13.84;92.32;101098.31;5023446;28;20527;-89
2021/07/11 02:58:39;;;;;;;0.20;0.20;;;;;;;13.84;92.70;101094.78;5032478;28;20060;-89
2021/07/11 03:01:14;;;;;;;0.52;0.30;;;;;;;13.78;93.31;101089.38;5037389;28;20056;-85
2021/07/11 03:03:44;;;;;;;0.20;0.20;;;;;;;13.80;92.79;101102.75;5027182;28;20055;-88
2021/07/11 03:06:20;;;;;;;0.10;0.10;;;;;;;13.85;93.78;101102.69;5024611;28;20436;-90
2021/07/11 03:08:54;;;;;;;0.17;0.17;;;;;;;13.81;92.79;101100.81;5038086;28;20049;-89
2021/07/11 03:11:30;;;;;;;0.17;0.17;;;;;;;13.83;93.08;101096.69;5049573;28;20049;-89
2021/07/11 03:14:07;;;;;;;0.15;0.15;;;;;;;13.89;93.42;101095.53;5053361;28;20054;-89
2021/07/11 03:16:53;;;;;;;0.10;0.10;;;;;;;13.82;92.67;101088.78;5029729;28;20056;-89
2021/07/11 03:19:37;;;;;;;0.20;0.20;;;;;;;13.85;92.63;101094.50;5019089;28;20050;-89
2021/07/11 03:22:13;;;;;;;0.13;0.13;;;;;;;13.90;93.01;101099.88;5018434;28;20053;-90
2021/07/11 03:24:47;;;;;;;0.10;0.10;;;;;;;13.92;93.01;101100.41;5048013;28;20041;-90
2021/07/11 03:27:22;;;;;;;0.15;0.15;;;;;;;13.83;92.50;101085.75;5035169;28;20045;-90
2021/07/11 03:30:04;;;;;;;0.17;0.17;;;;;;;13.81;93.20;101096.19;5051667;28;20044;-89
2021/07/11 03:32:42;;;;;;;0.20;0.20;;;;;;;13.80;93.24;101102.75;5018204;28;20050;-90
2021/07/11 03:35:17;;;;;;;0.20;0.20;;;;;;;13.84;93.19;101103.78;5050908;28;20053;-90
2021/07/11 03:37:56;;;;;;;0.20;0.20;;;;;;;13.83;93.76;101104.09;5027622;28;20762;-89
2021/07/11 03:40:32;;;;;;;0.20;0.20;;;;;;;13.86;93.23;101109.78;5023881;28;20057;-89
2021/07/11 03:43:08;;;;;;;0.20;0.20;;;;;;;13.88;92.81;101113.06;5038896;28;20379;-88
2021/07/11 03:45:45;;;;;;;0.10;0.10;;;;;;;13.89;93.27;101105.66;5036467;28;20053;-89
2021/07/11 03:48:25;;;;;;;0.20;0.20;;;;;;;13.95;93.77;101108.03;5045581;28;20045;-90
2021/07/11 03:51:02;;;;;;;0.10;0.10;;;;;;;14.03;93.08;101112.06;5041158;28;20398;-89
2021/07/11 03:53:38;;;;;;;0.20;0.20;;;;;;;14.08;92.10;101106.50;5026237;28;20050;-89
2021/07/11 03:56:12;;;;;;;0.20;0.20;;;;;;;14.07;92.71;101107.63;5042613;28;20041;-89
2021/07/11 03:58:47;;;;;;;0.15;0.15;;;;;;;14.12;92.87;101107.53;5051996;28;20413;-88
2021/07/11 04:01:23;;;;;;;0.20;0.20;;;;;;;14.18;93.04;101105.56;5047683;28;20045;-88
2021/07/11 04:04:00;;;;;;;0.10;0.10;;;;;;;14.19;93.12;101103.66;5031715;28;20048;-90
2021/07/11 04:06:34;;;;;;;0.17;0.17;;;;;;;14.21;93.82;101106.91;5051539;28;20051;-89
2021/07/11 04:09:05;;;;;;;0.20;0.20;;;;;;;14.29;93.11;101100.75;5042827;28;20045;-89
2021/07/11 04:11:38;;;;;;;0.20;0.20;;;;;;;14.32;92.70;101104.84;5044707;28;20061;-89
2021/07/11 04:14:15;;;;;;;0.10;0.10;;;;;;;14.26;92.92;101101.34;5048969;28;20041;-89
2021/07/11 04:16:45;;;;;;;0.20;0.20;;;;;;;14.29;92.63;101107.06;5043927;28;20466;-89
2021/07/11 04:19:24;;;;;;;0.17;0.17;;;;;;;14.32;92.87;101119.34;5050138;28;20540;-89
2021/07/11 04:21:53;;;;;;;0.20;0.20;;;;;;;14.36;93.07;101114.94;5049194;28;20045;-89
2021/07/11 04:24:23;;;;;;;0.20;0.20;;;;;;;14.37;93.59;101118.47;5051601;28;20461;-89
2021/07/11 04:26:57;;;;;;;0.10;0.10;;;;;;;14.37;93.10;101110.25;5048612;28;20406;-90
2021/07/11 04:29:33;;;;;;;0.20;0.20;;;;;;;14.45;92.91;101118.59;5032386;28;20080;-87
2021/07/11 04:32:09;;;;;;;0.20;0.20;;;;;;;14.51;93.59;101116.59;5027754;28;20055;-90
2021/07/11 04:34:45;;;;;;;0.20;0.20;;;;;;;14.52;93.32;101114.72;5037031;28;20045;-89
2021/07/11 04:37:18;;;;;;;0.10;0.10;;;;;;;14.58;92.80;101116.25;5041799;28;20413;-89
2021/07/11 04:39:51;;;;;;;0.10;0.10;;;;;;;14.64;92.59;101112.38;5022333;28;20489;-88
2021/07/11 04:42:24;;;;;;;0.10;0.10;;;;;;;14.76;92.78;101111.91;5040318;28;20048;-90
2021/07/11 04:45:02;;;;;;;0.20;0.20;;;;;;;14.92;91.95;101109.75;5049453;28;20041;-88
2021/07/11 04:47:35;;;;;;;0.20;0.20;;;;;;;14.78;92.50;101098.72;5039971;28;20056;-90
2021/07/11 04:50:11;;;;;;;0.20;0.20;;;;;;;14.86;93.12;101114.50;5020153;28;20490;-89
2021/07/11 04:52:45;;;;;;;0.20;0.20;;;;;;;14.82;93.61;101123.59;5046906;28;20049;-89
2021/07/11 04:55:18;;;;;;;0.20;0.20;;;;;;;14.83;93.96;101117.84;5050927;28;21195;-89
2021/07/11 04:57:51;;;;;;;0.20;0.20;;;;;;;15.02;92.49;101123.28;5050707;28;20041;-87
2021/07/11 05:00:25;;;;;;;0.20;0.20;;;;;;;15.03;93.07;101124.09;5044347;28;20037;-89
2021/07/11 05:02:58;;;;;;;0.20;0.20;;;;;;;15.25;93.04;101117.97;5050653;28;20048;-89
2021/07/11 05:05:34;;;;;;;0.10;0.10;;;;;;;15.32;92.14;101121.13;5029290;28;20053;-89
2021/07/11 05:08:09;;;;;;;0.20;0.20;;;;;;;15.32;92.29;101120.34;5049634;28;20064;-88
2021/07/11 05:10:42;;;;;;;0.20;0.20;;;;;;;15.51;91.67;101121.06;5048164;28;20048;-88
2021/07/11 05:13:15;;;;;;;0.20;0.20;;;;;;;15.77;90.44;101126.91;5042514;28;20053;-89
2021/07/11 05:15:48;;;;;;;0.13;0.13;;;;;;;16.78;85.75;101115.19;5028829;28;20049;-89
2021/07/11 05:18:21;;;;;;;0.20;0.20;;;;;;;17.87;83.75;101121.47;5038603;28;20048;-89
2021/07/11 05:20:56;;;;;;;0.20;0.20;;;;;;;19.02;79.58;101115.81;5030818;28;20063;-89
2021/07/11 05:23:30;;;;;;;0.20;0.20;;;;;;;20.08;74.28;101122.63;5042883;28;20044;-89
2021/07/11 05:26:04;;;;;;;0.22;0.22;;;;;;;19.95;74.82;101113.41;5037981;28;20045;-89
2021/07/11 05:28:39;;;;;;;0.20;0.20;;;;;;;20.64;73.26;101119.63;5031109;28;20056;-89
2021/07/11 05:31:13;;;;;;;0.20;0.20;;;;;;;20.70;70.59;101120.25;5041826;28;20116;-89
2021/07/11 05:33:46;;;;;;;0.10;0.10;;;;;;;19.54;75.30;101126.75;5047750;28;20040;-88
2021/07/11 05:36:21;;;;;;;0.10;0.10;;;;;;;18.90;78.47;101132.22;5025634;28;20071;-90
2021/07/11 05:38:54;;;;;;;0.10;0.10;;;;;;;18.32;79.17;101138.63;5044641;28;20076;-88
2021/07/11 05:41:27;;;;;;;0.10;0.10;;;;;;;18.02;80.47;101138.41;5048166;28;20390;-89
2021/07/11 05:43:56;;;;;;;0.13;0.13;;;;;;;17.70;80.92;101142.28;5046141;28;20048;-90
2021/07/11 05:46:30;;;;;;;0.20;0.20;;;;;;;17.98;81.74;101133.84;5048437;28;20394;-90
2021/07/11 05:49:03;;;;;;;0.10;0.10;;;;;;;17.98;82.16;101136.59;5029440;28;20056;-88
2021/07/11 05:51:38;;;;;;;0.17;0.17;;;;;;;17.90;81.46;101140.09;5040080;28;20045;-88
2021/07/11 05:54:11;;;;;;;0.13;0.13;;;;;;;17.76;82.94;101146.53;5053204;28;20041;-86
2021/07/11 05:56:45;;;;;;;0.10;0.10;;;;;;;17.63;83.38;101144.69;5044236;28;20044;-87
2021/07/11 05:59:19;;;;;;;0.20;0.20;;;;;;;17.70;84.41;101141.50;5028054;28;20045;-89
2021/07/11 06:01:47;;;;;;;0.20;0.20;;;;;;;17.58;84.01;101147.56;5048656;28;20048;-89
2021/07/11 06:04:20;;;;;;;0.20;0.20;;;;;;;17.58;85.89;101151.16;5024134;28;20056;-90
2021/07/11 06:06:50;;;;;;;0.20;0.20;;;;;;;17.86;81.87;101134.44;5028780;28;20060;-89
2021/07/11 06:09:25;;;;;;;0.20;0.20;;;;;;;17.82;81.78;101131.50;5042256;28;20544;-88
2021/07/11 06:11:53;;;;;;;0.17;0.17;;;;;;;17.89;80.75;101141.25;5052126;28;20049;-88
2021/07/11 06:14:27;;;;;;;0.10;0.10;;;;;;;17.78;80.95;101143.47;5048371;28;20049;-89
2021/07/11 06:16:55;;;;;;;0.10;0.10;;;;;;;17.79;81.34;101134.88;5052682;28;20051;-89
2021/07/11 06:19:29;;;;;;;0.10;0.10;;;;;;;17.84;82.82;101140.25;5045835;28;20056;-89
2021/07/11 06:22:05;;;;;;;0.10;0.10;;;;;;;17.86;82.71;101137.19;5048542;28;20049;-90
2021/07/11 06:24:38;;;;;;;0.20;0.20;;;;;;;17.87;84.58;101133.31;5027944;28;20060;-89
2021/07/11 06:27:11;;;;;;;0.20;0.20;;;;;;;17.95;80.54;101140.00;5028839;28;20418;-89
2021/07/11 06:29:44;;;;;;;0.10;0.10;;;;;;;18.13;82.04;101152.69;5028699;28;20057;-89
2021/07/11 06:32:18;;;;;;;0.10;0.10;;;;;;;18.29;81.68;101141.22;5034113;28;20057;-90
2021/07/11 06:34:46;;;;;;;0.20;0.20;;;;;;;18.33;79.53;101140.25;5051294;28;20045;-89
2021/07/11 06:37:21;;;;;;;0.20;0.20;;;;;;;18.27;83.21;101129.69;5047715;28;20036;-91
2021/07/11 06:39:54;;;;;;;0.10;0.10;;;;;;;18.51;79.88;101140.28;5044550;28;20057;-88
2021/07/11 06:42:27;;;;;;;0.10;0.10;;;;;;;18.52;79.22;101134.44;5032686;28;20052;-90
2021/07/11 06:45:01;;;;;;;0.20;0.20;;;;;;;18.48;80.08;101129.91;5046842;28;20041;-88
2021/07/11 06:47:35;;;;;;;0.17;0.17;;;;;;;18.48;79.24;101125.22;5048335;28;20523;-87
2021/07/11 06:50:10;;;;;;;0.15;0.15;;;;;;;18.44;79.35;101131.69;5032284;28;20053;-89
2021/07/11 06:52:48;;;;;;;0.13;0.13;;;;;;;18.37;80.46;101132.16;5048802;28;20037;-89
2021/07/11 06:55:21;;;;;;;0.10;0.10;;;;;;;18.48;81.42;101135.44;5045829;28;20374;-89
2021/07/11 06:57:54;;;;;;;0.10;0.10;;;;;;;18.66;79.70;101136.25;5050735;28;20048;-88
2021/07/11 07:00:23;;;;;;;0.10;0.10;;;;;;;18.62;79.90;101138.84;5043188;28;20052;-88
2021/07/11 07:02:56;;;;;;;0.10;0.10;;;;;;;18.77;80.70;101137.56;5029935;28;20710;-89
2021/07/11 07:05:29;;;;;;;0.20;0.20;;;;;;;18.73;81.91;101128.31;5045270;28;20041;-88
2021/07/11 07:08:05;;;;;;;0.15;0.15;;;;;;;18.88;81.62;101138.06;5052248;28;20649;-89
2021/07/11 07:10:39;;;;;;;0.10;0.10;;;;;;;18.93;79.60;101139.84;5051791;28;20392;-87
2021/07/11 07:13:13;;;;;;;0.10;0.10;;;;;;;18.92;79.80;101133.53;5033052;28;20057;-89
2021/07/11 07:15:46;;;;;;;0.10;0.10;;;;;;;19.00;79.16;101135.47;5029432;28;20413;-87
2021/07/11 07:18:20;;;;;;;0.20;0.20;;;;;;;19.02;78.06;101132.38;5051037;28;20049;-90
2021/07/11 07:20:53;;;;;;;0.10;0.10;;;;;;;19.23;78.38;101135.25;5029077;28;20049;-90
2021/07/11 07:23:28;;;;;;;0.10;0.10;;;;;;;19.33;80.12;101126.66;5047951;28;20059;-88
2021/07/11 07:25:56;;;;;;;0.10;0.10;;;;;;;19.52;78.24;101140.03;5045242;28;20049;-89
2021/07/11 07:28:32;;;;;;;0.20;0.20;;;;;;;19.32;76.79;101127.78;5033785;28;20060;-89
2021/07/11 07:31:06;;;;;;;0.10;0.10;;;;;;;19.35;79.25;101138.16;5033600;28;20505;-87
2021/07/11 07:33:43;;;;;;;0.10;0.10;;;;;;;19.45;78.90;101136.19;5033291;28;20064;-89
2021/07/11 07:36:14;;;;;;;0.20;0.20;;;;;;;19.52;78.22;101134.53;5030965;28;20048;-86
2021/07/11 07:38:48;;;;;;;0.10;0.10;;;;;;;19.76;75.10;101135.94;5048322;28;20497;-88
2021/07/11 07:41:17;;;;;;;0.10;0.10;;;;;;;19.66;77.28;101128.00;5048630;28;20052;-87
2021/07/11 07:43:50;;;;;;;0.10;0.10;;;;;;;19.61;80.85;101123.47;5029911;28;20394;-88
2021/07/11 07:46:23;;;;;;;0.20;0.20;;;;;;;19.75;76.40;101133.47;5045057;28;20036;-86
2021/07/11 07:48:57;;;;;;;0.10;0.10;;;;;;;19.67;76.86;101127.66;5035101;28;20041;-88
2021/07/11 07:51:30;;;;;;;0.10;0.10;;;;;;;19.78;75.22;101127.31;5039675;28;20053;-88
2021/07/11 07:54:00;;;;;;;0.10;0.10;;;;;;;20.14;75.54;101131.53;5025794;28;20056;-88
2021/07/11 07:56:33;;;;;;;0.17;0.17;;;;;;;20.09;71.75;101124.22;5046584;28;20041;-88
2021/07/11 07:59:06;;;;;;;0.20;0.20;;;;;;;20.20;72.75;101132.94;5046362;28;20048;-88
2021/07/11 08:01:41;;;;;;;0.10;0.10;;;;;;;20.40;74.48;101131.38;5046456;28;20041;-89
2021/07/11 08:04:14;;;;;;;0.10;0.10;;;;;;;20.41;72.74;101135.75;5048716;28;20465;-87
2021/07/11 08:06:48;;;;;;;0.10;0.10;;;;;;;20.64;71.07;101130.69;5048343;28;20052;-87
2021/07/11 08:09:19;;;;;;;0.10;0.10;;;;;;;20.59;71.45;101127.31;5040641;28;20050;-87
2021/07/11 08:11:54;;;;;;;0.10;0.10;;;;;;;20.74;71.21;101126.72;5052510;28;20037;-86
2021/07/11 08:14:27;;;;;;;0.10;0.10;;;;;;;20.90;71.47;101135.22;5030793;28;20059;-86
2021/07/11 08:17:00;;;;;;;0.10;0.10;;;;;;;21.05;69.33;101133.78;5043167;28;20509;-86
2021/07/11 08:19:34;;;;;;;0.17;0.17;;;;;;;21.09;70.77;101129.19;4966940;28;20583;-84
2021/07/11 08:22:07;;;;;;;0.10;0.10;;;;;;;21.38;70.31;101122.69;5027645;28;20067;-85
2021/07/11 08:24:37;;;;;;;0.10;0.10;;;;;;;21.26;68.30;101130.97;5041620;28;20375;-84
2021/07/11 08:27:10;;;;;;;0.20;0.20;;;;;;;21.16;69.04;101131.41;5044435;28;20516;-85
2021/07/11 08:29:50;;;;;;;0.10;0.10;;;;;;;21.19;69.37;101123.22;5043842;28;20048;-84
2021/07/11 08:32:24;;;;;;;0.10;0.10;;;;;;;21.19;69.97;101126.00;5027553;28;20529;-86
2021/07/11 08:34:57;;;;;;;0.10;0.10;;;;;;;21.20;68.45;101105.47;5042411;28;20413;-86
2021/07/11 08:37:36;;;;;;;0.10;0.10;;;;;;;21.38;69.33;101130.22;5044360;28;20041;-85
2021/07/11 08:40:18;;;;;;;0.10;0.10;;;;;;;21.36;75.64;101122.25;5043903;28;20060;-86
2021/07/11 08:42:54;;;;;;;0.10;0.10;;;;;;;21.40;69.86;101116.81;5042670;28;20052;-84
2021/07/11 08:45:28;;;;;;;0.10;0.10;;;;;;;21.53;71.29;101110.19;5021275;28;20056;-85
2021/07/11 08:48:02;;;;;;;0.10;0.10;;;;;;;21.80;68.43;101118.97;5041396;28;20049;-87
2021/07/11 08:50:35;;;;;;;0.10;0.10;;;;;;;21.90;67.31;101124.06;5023068;28;20072;-84
2021/07/11 08:53:04;;;;;;;0.10;0.10;;;;;;;21.76;64.43;101128.31;5024280;28;20061;-84
2021/07/11 08:55:39;;;;;;;0.10;0.10;;;;;;;21.74;66.13;101126.69;5042163;28;20683;-86
2021/07/11 08:58:07;;;;;;;0.10;0.10;;;;;;;21.74;69.32;101118.38;5044314;28;20045;-85
2021/07/11 09:00:43;;;;;;;0.10;0.10;;;;;;;22.07;69.18;101122.22;5024849;28;20053;-86
2021/07/11 09:03:17;;;;;;;0.10;0.10;;;;;;;21.91;67.63;101131.19;5022658;28;20065;-85
2021/07/11 09:06:00;;;;;;;0.10;0.10;;;;;;;22.22;65.06;101124.25;5040976;28;20052;-85
2021/07/11 09:08:33;;;;;;;0.10;0.10;;;;;;;22.16;67.67;101110.97;5022855;28;20052;-84
2021/07/11 09:11:03;;;;;;;0.20;0.20;;;;;;;22.18;63.26;101119.75;5030925;28;20060;-84
2021/07/11 09:13:36;;;;;;;0.10;0.10;;;;;;;22.15;62.21;101117.69;5039567;28;21380;-86
2021/07/11 09:16:10;;;;;;;0.10;0.10;;;;;;;22.06;64.02;101115.84;5039440;28;20052;-85
2021/07/11 09:18:43;;;;;;;0.30;0.10;;;;;;;22.03;66.09;101133.16;5044287;28;20049;-84
2021/07/11 09:21:16;;;;;;;0.10;0.10;;;;;;;21.94;69.15;101124.16;5040236;28;20052;-85
2021/07/11 09:23:49;;;;;;;0.10;0.10;;;;;;;22.13;64.32;101122.78;5014323;28;20049;-84
2021/07/11 09:26:26;;;;;;;0.10;0.10;;;;;;;21.89;66.80;101116.09;5037013;28;20834;-82
2021/07/11 09:29:01;;;;;;;0.10;0.10;;;;;;;21.87;67.34;101118.38;5042556;28;20059;-83
2021/07/11 09:31:37;;;;;;;0.10;0.10;;;;;;;21.97;65.74;101120.72;5038465;28;20067;-85
2021/07/11 09:34:05;;;;;;;0.10;0.10;;;;;;;22.18;63.64;101126.13;5027154;28;20067;-84
2021/07/11 09:36:40;;;;;;;0.10;0.10;;;;;;;22.45;64.41;101120.22;5025784;28;20060;-86
2021/07/11 09:39:14;;;;;;;0.10;0.10;;;;;;;22.49;64.08;101121.91;5023576;28;20052;-85
2021/07/11 09:41:49;;;;;;;0.10;0.10;;;;;;;22.63;65.52;101123.50;5020159;28;20053;-86
2021/07/11 09:44:22;;;;;;;0.10;0.10;;;;;;;22.67;65.91;101121.66;5043466;28;20045;-85
2021/07/11 09:46:50;;;;;;;0.10;0.10;;;;;;;22.88;61.67;101119.50;5044442;28;21402;-85
2021/07/11 09:49:20;;;;;;;0.10;0.10;;;;;;;22.94;60.66;101120.03;5022260;28;20052;-85
2021/07/11 09:51:49;;;;;;;0.10;0.10;;;;;;;23.08;64.91;101120.41;5022687;28;20067;-86
2021/07/11 09:54:19;;;;;;;0.10;0.10;;;;;;;22.90;62.73;101122.72;5026289;28;20063;-85
2021/07/11 09:56:49;;;;;;;0.10;0.10;;;;;;;23.05;64.66;101125.91;5044375;28;20050;-85
2021/07/11 09:59:32;;;;;;;0.10;0.10;;;;;;;23.24;64.22;101116.88;5044222;28;20048;-85
2021/07/11 10:02:05;;;;;;;0.10;0.10;;;;;;;23.36;59.97;101119.59;5023499;28;20059;-85
2021/07/11 10:04:38;;;;;;;0.10;0.10;;;;;;;23.70;58.97;101113.72;5038395;28;20662;-85
2021/07/11 10:07:07;;;;;;;0.10;0.10;;;;;;;23.59;62.81;101113.44;5021178;28;20432;-85
2021/07/11 10:09:40;;;;;;;0.10;0.10;;;;;;;23.56;57.36;101105.81;5041244;28;20045;-84
2021/07/11 10:12:11;;;;;;;0.10;0.10;;;;;;;23.79;61.88;101103.19;5018809;28;20061;-86
2021/07/11 10:14:46;;;;;;;0.10;0.10;;;;;;;23.92;61.91;101106.72;5026514;28;20052;-85
2021/07/11 10:17:20;;;;;;;0.10;0.10;;;;;;;23.64;61.85;101093.69;5029754;28;20052;-85
2021/07/11 10:19:55;;;;;;;0.10;0.10;;;;;;;23.65;58.93;101102.88;5041693;28;20508;-85
2021/07/11 10:22:24;;;;;;;0.10;0.10;;;;;;;23.65;55.36;101108.41;5046625;28;20049;-86
2021/07/11 10:24:57;;;;;;;0.10;0.10;;;;;;;23.82;62.87;101110.81;5030925;28;20053;-86
2021/07/11 10:27:32;;;;;;;0.10;0.10;;;;;;;24.00;63.87;101116.84;5024463;28;20520;-85
2021/07/11 10:30:07;;;;;;;0.10;0.10;;;;;;;24.02;58.02;101113.69;5039847;28;20053;-87
2021/07/11 10:32:41;;;;;;;0.10;0.10;;;;;;;24.34;55.13;101106.06;5039926;28;20049;-85
2021/07/11 10:35:19;;;;;;;0.10;0.10;;;;;;;24.22;59.32;101098.69;5027198;28;20053;-86
2021/07/11 10:37:57;;;;;;;0.10;0.10;;;;;;;24.40;55.33;101103.81;5043047;28;20520;-84
2021/07/11 10:40:32;;;;;;;0.10;0.10;;;;;;;24.40;56.43;101103.81;5049627;28;20037;-83
2021/07/11 10:43:13;;;;;;;0.30;0.10;;;;;;;24.38;63.55;101089.47;5049641;28;20052;-86
2021/07/11 10:45:48;;;;;;;0.10;0.10;;;;;;;24.54;61.66;101106.09;5047643;28;20481;-86
2021/07/11 10:48:30;;;;;;;0.10;0.10;;;;;;;24.28;54.92;101104.75;5044357;28;20053;-84
2021/07/11 10:51:00;;;;;;;0.10;0.10;;;;;;;24.24;54.72;101099.09;5024802;28;20061;-86
2021/07/11 10:53:35;;;;;;;0.10;0.10;;;;;;;24.49;56.26;101100.84;5028131;28;20045;-85
2021/07/11 10:56:06;;;;;;;0.10;0.10;;;;;;;24.25;61.10;101114.63;5030601;28;20052;-85
2021/07/11 10:58:46;;;;;;;0.10;0.10;;;;;;;24.48;57.43;101102.78;5020288;28;20049;-86
2021/07/11 11:01:21;;;;;;;0.10;0.10;;;;;;;24.28;57.70;101080.53;5028449;28;20517;-86
2021/07/11 11:03:52;;;;;;;0.10;0.10;;;;;;;24.18;57.51;101103.34;5044090;28;20505;-85
2021/07/11 11:06:24;;;;;;;0.10;0.10;;;;;;;23.97;62.92;101114.78;5022631;28;20045;-86
2021/07/11 11:08:52;;;;;;;0.10;0.10;;;;;;;24.02;60.44;101099.81;5042546;28;20049;-86
2021/07/11 11:11:31;;;;;;;0.10;0.10;;;;;;;24.22;58.01;101100.63;5027455;28;20072;-85
2021/07/11 11:14:06;;;;;;;0.10;0.10;;;;;;;24.35;57.27;101104.91;5025753;28;20048;-86
2021/07/11 11:16:45;;;;;;;0.10;0.10;;;;;;;24.31;54.87;101111.56;5026661;28;20433;-84
2021/07/11 11:19:14;;;;;;;0.10;0.10;;;;;;;24.26;57.49;101107.09;5027697;28;20405;-85
2021/07/11 11:21:44;;;;;;;0.10;0.10;;;;;;;24.24;57.60;101101.09;5030983;28;20057;-85
2021/07/11 11:24:13;;;;;;;0.20;0.10;;;;;;;24.38;57.00;101095.84;5031251;28;20505;-85
2021/07/11 11:26:42;;;;;;;0.10;0.10;;;;;;;24.48;55.00;101099.22;5024305;28;20785;-85
2021/07/11 11:29:12;;;;;;;0.10;0.10;;;;;;;24.75;62.78;101103.78;5054591;28;20045;-85
2021/07/11 11:31:40;;;;;;;0.10;0.10;;;;;;;25.12;61.92;101102.47;5031906;28;20053;-84
2021/07/11 11:34:13;;;;;;;0.13;0.13;;;;;;;25.28;59.93;101096.81;5050102;28;20056;-85
2021/07/11 11:36:51;;;;;;;0.10;0.10;;;;;;;25.53;59.75;101105.63;5046496;28;20052;-86
2021/07/11 11:39:22;;;;;;;0.10;0.10;;;;;;;25.41;52.84;101100.22;5052514;28;20045;-85
2021/07/11 11:41:50;;;;;;;0.10;0.10;;;;;;;25.38;54.33;101098.19;5010008;28;20049;-85
2021/07/11 11:44:26;;;;;;;0.10;0.10;;;;;;;25.00;55.81;101102.66;5022617;28;20063;-85
2021/07/11 11:47:01;;;;;;;0.10;0.10;;;;;;;24.52;53.79;101100.09;5044123;28;20400;-84
2021/07/11 11:49:34;;;;;;;0.10;0.10;;;;;;;24.40;60.13;101101.84;5019811;28;20645;-85
2021/07/11 11:52:07;;;;;;;0.10;0.10;;;;;;;24.23;58.53;101088.34;5022669;28;20065;-84
2021/07/11 11:54:41;;;;;;;0.10;0.10;;;;;;;23.93;59.39;101095.25;5037908;28;20056;-84
2021/07/11 11:57:14;;;;;;;0.10;0.10;;;;;;;23.90;60.35;101101.50;5038816;28;20053;-84